sensor_id;sensor_type;location;lat;lon;timestamp;pressure;altitude;pressure_sealevel;temperature;humidity
11049;BME280;5577;42.706;23.160;2022-09-16T00:02:02;93635.47;;;23.90;60.51
11049;BME280;5577;42.706;23.160;2022-09-16T00:04:45;93623.88;;;23.90;60.79
11049;BME280;5577;42.706;23.160;2022-09-16T00:07:29;93645.66;;;23.86;61.07
11049;BME280;5577;42.706;23.160;2022-09-16T00:10:14;93651.63;;;23.81;61.52
11049;BME280;5577;42.706;23.160;2022-09-16T00:12:58;93658.38;;;23.77;61.66
11049;BME280;5577;42.706;23.160;2022-09-16T00:15:47;93651.13;;;23.74;62.61
11049;BME280;5577;42.706;23.160;2022-09-16T00:18:33;93651.81;;;23.65;62.75
11049;BME280;5577;42.706;23.160;2022-09-16T00:21:17;93647.09;;;23.57;62.96
11049;BME280;5577;42.706;23.160;2022-09-16T00:24:01;93649.28;;;23.49;63.12
11049;BME280;5577;42.706;23.160;2022-09-16T00:26:46;93641.56;;;23.39;63.13
11049;BME280;5577;42.706;23.160;2022-09-16T00:29:30;93632.81;;;23.35;63.35
11049;BME280;5577;42.706;23.160;2022-09-16T00:32:14;93632.94;;;23.31;63.82
11049;BME280;5577;42.706;23.160;2022-09-16T00:34:58;93630.47;;;23.24;63.87
11049;BME280;5577;42.706;23.160;2022-09-16T00:37:41;93632.19;;;23.18;63.68
11049;BME280;5577;42.706;23.160;2022-09-16T00:40:25;93633.06;;;23.15;64.56
11049;BME280;5577;42.706;23.160;2022-09-16T00:43:14;93643.66;;;23.10;64.14
11049;BME280;5577;42.706;23.160;2022-09-16T00:46:01;93639.03;;;23.10;64.31
11049;BME280;5577;42.706;23.160;2022-09-16T00:48:47;93644.13;;;23.08;64.05
11049;BME280;5577;42.706;23.160;2022-09-16T00:51:32;93605.31;;;22.68;64.56
11049;BME280;5577;42.706;23.160;2022-09-16T00:54:17;93647.72;;;22.93;64.74
11049;BME280;5577;42.706;23.160;2022-09-16T00:57:03;93639.28;;;22.91;64.36
11049;BME280;5577;42.706;23.160;2022-09-16T00:59:53;93641.88;;;22.94;63.93
11049;BME280;5577;42.706;23.160;2022-09-16T01:02:40;93651.47;;;22.95;63.25
11049;BME280;5577;42.706;23.160;2022-09-16T01:05:25;93643.59;;;23.01;62.62
11049;BME280;5577;42.706;23.160;2022-09-16T01:08:09;93654.25;;;23.04;62.08
11049;BME280;5577;42.706;23.160;2022-09-16T01:10:53;93647.44;;;23.12;61.71
11049;BME280;5577;42.706;23.160;2022-09-16T01:13:38;93646.34;;;23.10;62.19
11049;BME280;5577;42.706;23.160;2022-09-16T01:16:33;93646.91;;;23.05;62.03
11049;BME280;5577;42.706;23.160;2022-09-16T01:28:19;93642.22;;;22.84;64.66
11049;BME280;5577;42.706;23.160;2022-09-16T01:37:08;93627.03;;;22.65;66.11
11049;BME280;5577;42.706;23.160;2022-09-16T01:40:33;93635.56;;;22.63;66.11
11049;BME280;5577;42.706;23.160;2022-09-16T01:46:22;93633.28;;;22.74;63.88
11049;BME280;5577;42.706;23.160;2022-09-16T01:56:11;93610.56;;;22.97;61.58
11049;BME280;5577;42.706;23.160;2022-09-16T01:59:03;93609.88;;;23.05;60.73
11049;BME280;5577;42.706;23.160;2022-09-16T02:02:03;93606.19;;;23.12;60.37
11049;BME280;5577;42.706;23.160;2022-09-16T02:04:54;93625.19;;;23.21;59.01
11049;BME280;5577;42.706;23.160;2022-09-16T02:07:44;93609.50;;;23.28;59.11
11049;BME280;5577;42.706;23.160;2022-09-16T02:10:38;93609.69;;;23.34;58.09
11049;BME280;5577;42.706;23.160;2022-09-16T02:13:33;93609.88;;;23.39;57.83
11049;BME280;5577;42.706;23.160;2022-09-16T02:19:15;93600.59;;;23.40;57.57
11049;BME280;5577;42.706;23.160;2022-09-16T02:22:04;93607.06;;;23.43;57.55
11049;BME280;5577;42.706;23.160;2022-09-16T02:24:51;93606.63;;;23.44;58.25
11049;BME280;5577;42.706;23.160;2022-09-16T02:27:38;93614.84;;;23.41;58.15
11049;BME280;5577;42.706;23.160;2022-09-16T02:30:23;93613.78;;;23.38;57.29
11049;BME280;5577;42.706;23.160;2022-09-16T02:33:09;93611.16;;;23.47;57.53
11049;BME280;5577;42.706;23.160;2022-09-16T02:35:56;93610.66;;;23.40;56.98
11049;BME280;5577;42.706;23.160;2022-09-16T02:38:46;93612.78;;;23.45;57.63
11049;BME280;5577;42.706;23.160;2022-09-16T02:41:31;93623.38;;;23.39;58.32
11049;BME280;5577;42.706;23.160;2022-09-16T02:44:15;93625.47;;;23.35;58.82
11049;BME280;5577;42.706;23.160;2022-09-16T02:47:08;93621.16;;;23.25;59.65
11049;BME280;5577;42.706;23.160;2022-09-16T02:50:11;93627.66;;;23.15;60.10
11049;BME280;5577;42.706;23.160;2022-09-16T02:53:18;93637.00;;;23.02;60.54
11049;BME280;5577;42.706;23.160;2022-09-16T02:56:25;93642.31;;;22.93;60.62
11049;BME280;5577;42.706;23.160;2022-09-16T02:59:12;93638.66;;;22.87;60.94
11049;BME280;5577;42.706;23.160;2022-09-16T03:01:58;93653.13;;;22.80;61.04
11049;BME280;5577;42.706;23.160;2022-09-16T03:04:43;93603.84;;;22.55;60.91
11049;BME280;5577;42.706;23.160;2022-09-16T03:07:28;93655.50;;;22.78;61.15
11049;BME280;5577;42.706;23.160;2022-09-16T03:10:12;93670.41;;;22.83;60.35
11049;BME280;5577;42.706;23.160;2022-09-16T03:13:23;93685.72;;;22.86;60.67
11049;BME280;5577;42.706;23.160;2022-09-16T03:22:15;93680.66;;;22.63;63.17
11049;BME280;5577;42.706;23.160;2022-09-16T03:37:16;93640.25;;;22.46;66.39
11049;BME280;5577;42.706;23.160;2022-09-16T03:40:09;93631.78;;;22.48;68.04
11049;BME280;5577;42.706;23.160;2022-09-16T03:42:56;93620.31;;;22.44;68.86
11049;BME280;5577;42.706;23.160;2022-09-16T03:45:41;93610.38;;;22.41;68.79
11049;BME280;5577;42.706;23.160;2022-09-16T03:48:26;93618.03;;;22.42;70.47
11049;BME280;5577;42.706;23.160;2022-09-16T03:51:10;93613.97;;;22.38;71.90
11049;BME280;5577;42.706;23.160;2022-09-16T03:53:55;93628.31;;;22.22;76.07
11049;BME280;5577;42.706;23.160;2022-09-16T03:56:39;93641.25;;;22.15;81.70
11049;BME280;5577;42.706;23.160;2022-09-16T03:59:24;93643.50;;;22.04;83.03
11049;BME280;5577;42.706;23.160;2022-09-16T04:02:08;93664.19;;;21.94;81.03
11049;BME280;5577;42.706;23.160;2022-09-16T04:04:52;93669.00;;;21.87;81.23
11049;BME280;5577;42.706;23.160;2022-09-16T04:07:36;93677.63;;;21.82;82.61
11049;BME280;5577;42.706;23.160;2022-09-16T04:10:20;93663.94;;;21.60;82.21
11049;BME280;5577;42.706;23.160;2022-09-16T04:13:03;93682.03;;;21.60;83.48
11049;BME280;5577;42.706;23.160;2022-09-16T04:15:47;93680.19;;;21.57;82.95
11049;BME280;5577;42.706;23.160;2022-09-16T04:18:33;93677.59;;;21.53;85.37
11049;BME280;5577;42.706;23.160;2022-09-16T04:21:17;93682.41;;;21.46;84.79
11049;BME280;5577;42.706;23.160;2022-09-16T04:24:02;93682.81;;;21.44;87.07
11049;BME280;5577;42.706;23.160;2022-09-16T04:26:46;93683.59;;;21.45;91.60
11049;BME280;5577;42.706;23.160;2022-09-16T04:29:30;93679.81;;;21.42;95.31
11049;BME280;5577;42.706;23.160;2022-09-16T04:32:15;93690.66;;;21.39;91.54
11049;BME280;5577;42.706;23.160;2022-09-16T04:34:59;93676.41;;;21.26;99.25
11049;BME280;5577;42.706;23.160;2022-09-16T04:37:44;93688.44;;;21.21;100.00
11049;BME280;5577;42.706;23.160;2022-09-16T04:40:28;93691.31;;;21.14;100.00
11049;BME280;5577;42.706;23.160;2022-09-16T04:43:12;93686.53;;;21.06;100.00
11049;BME280;5577;42.706;23.160;2022-09-16T04:45:56;93698.13;;;21.03;100.00
11049;BME280;5577;42.706;23.160;2022-09-16T04:48:40;93693.09;;;21.05;100.00
11049;BME280;5577;42.706;23.160;2022-09-16T04:51:26;93703.16;;;21.01;100.00
11049;BME280;5577;42.706;23.160;2022-09-16T04:54:10;93698.53;;;21.01;100.00
11049;BME280;5577;42.706;23.160;2022-09-16T04:56:55;93692.75;;;21.03;100.00
11049;BME280;5577;42.706;23.160;2022-09-16T04:59:40;93693.75;;;21.09;100.00
11049;BME280;5577;42.706;23.160;2022-09-16T05:02:24;93684.41;;;21.13;100.00
11049;BME280;5577;42.706;23.160;2022-09-16T05:05:08;93684.06;;;21.11;100.00
11049;BME280;5577;42.706;23.160;2022-09-16T05:07:52;93678.94;;;21.17;100.00
11049;BME280;5577;42.706;23.160;2022-09-16T05:10:36;93666.56;;;21.19;100.00
11049;BME280;5577;42.706;23.160;2022-09-16T05:13:22;93634.63;;;21.05;100.00
11049;BME280;5577;42.706;23.160;2022-09-16T05:16:10;93635.72;;;20.92;100.00
11049;BME280;5577;42.706;23.160;2022-09-16T05:18:57;93679.84;;;21.26;100.00
11049;BME280;5577;42.706;23.160;2022-09-16T05:21:42;93676.38;;;21.42;100.00
11049;BME280;5577;42.706;23.160;2022-09-16T05:24:26;93679.34;;;21.60;100.00
11049;BME280;5577;42.706;23.160;2022-09-16T05:27:10;93686.16;;;21.64;100.00
11049;BME280;5577;42.706;23.160;2022-09-16T05:29:54;93680.19;;;21.73;100.00
11049;BME280;5577;42.706;23.160;2022-09-16T05:32:38;93670.31;;;21.66;100.00
11049;BME280;5577;42.706;23.160;2022-09-16T05:35:22;93674.16;;;21.81;100.00
11049;BME280;5577;42.706;23.160;2022-09-16T05:38:05;93670.63;;;21.84;100.00
11049;BME280;5577;42.706;23.160;2022-09-16T05:40:49;93666.53;;;21.92;100.00
11049;BME280;5577;42.706;23.160;2022-09-16T05:43:34;93629.63;;;21.77;100.00
11049;BME280;5577;42.706;23.160;2022-09-16T05:46:20;93656.44;;;22.09;100.00
11049;BME280;5577;42.706;23.160;2022-09-16T05:49:05;93661.63;;;22.16;100.00
11049;BME280;5577;42.706;23.160;2022-09-16T05:51:49;93661.94;;;22.18;98.76
11049;BME280;5577;42.706;23.160;2022-09-16T05:54:33;93669.41;;;22.26;94.22
11049;BME280;5577;42.706;23.160;2022-09-16T05:57:17;93672.75;;;22.30;91.65
11049;BME280;5577;42.706;23.160;2022-09-16T06:00:03;93649.66;;;22.29;93.11
11049;BME280;5577;42.706;23.160;2022-09-16T06:02:47;93670.06;;;22.43;89.26
11049;BME280;5577;42.706;23.160;2022-09-16T06:05:31;93671.13;;;22.45;89.27
11049;BME280;5577;42.706;23.160;2022-09-16T06:08:16;93669.75;;;22.54;89.54
11049;BME280;5577;42.706;23.160;2022-09-16T06:11:05;93651.41;;;22.61;87.43
11049;BME280;5577;42.706;23.160;2022-09-16T06:13:58;93662.94;;;22.87;88.29
11049;BME280;5577;42.706;23.160;2022-09-16T06:16:43;93645.78;;;22.81;99.87
11049;BME280;5577;42.706;23.160;2022-09-16T06:19:27;93652.78;;;22.91;97.46
11049;BME280;5577;42.706;23.160;2022-09-16T06:22:11;93657.72;;;23.05;95.05
11049;BME280;5577;42.706;23.160;2022-09-16T06:24:54;93649.28;;;23.03;88.87
11049;BME280;5577;42.706;23.160;2022-09-16T06:27:38;93634.94;;;22.93;89.70
11049;BME280;5577;42.706;23.160;2022-09-16T06:30:22;93650.41;;;22.93;92.65
11049;BME280;5577;42.706;23.160;2022-09-16T06:35:51;93646.75;;;22.87;95.08
11049;BME280;5577;42.706;23.160;2022-09-16T06:38:36;93657.75;;;22.92;99.30
11049;BME280;5577;42.706;23.160;2022-09-16T06:41:21;93667.56;;;22.99;91.23
11049;BME280;5577;42.706;23.160;2022-09-16T06:44:05;93664.28;;;23.16;92.59
11049;BME280;5577;42.706;23.160;2022-09-16T06:46:49;93673.03;;;23.20;93.05
11049;BME280;5577;42.706;23.160;2022-09-16T06:49:33;93668.19;;;23.28;87.46
11049;BME280;5577;42.706;23.160;2022-09-16T06:52:17;93664.44;;;23.47;84.59
11049;BME280;5577;42.706;23.160;2022-09-16T06:55:02;93668.28;;;23.58;86.52
11049;BME280;5577;42.706;23.160;2022-09-16T06:57:46;93664.56;;;23.65;83.58
11049;BME280;5577;42.706;23.160;2022-09-16T07:00:30;93663.00;;;23.76;84.24
11049;BME280;5577;42.706;23.160;2022-09-16T07:03:14;93656.28;;;23.81;80.61
11049;BME280;5577;42.706;23.160;2022-09-16T07:06:00;93675.19;;;23.93;81.55
11049;BME280;5577;42.706;23.160;2022-09-16T07:08:45;93670.50;;;23.94;80.73
11049;BME280;5577;42.706;23.160;2022-09-16T07:11:29;93651.63;;;23.81;79.79
11049;BME280;5577;42.706;23.160;2022-09-16T07:14:13;93679.31;;;24.07;79.23
11049;BME280;5577;42.706;23.160;2022-09-16T07:16:57;93670.16;;;24.13;78.49
11049;BME280;5577;42.706;23.160;2022-09-16T07:19:41;93670.41;;;24.28;74.66
11049;BME280;5577;42.706;23.160;2022-09-16T07:22:29;93671.28;;;24.25;74.38
11049;BME280;5577;42.706;23.160;2022-09-16T07:25:13;93657.22;;;24.30;76.57
11049;BME280;5577;42.706;23.160;2022-09-16T07:27:57;93624.84;;;24.17;76.38
11049;BME280;5577;42.706;23.160;2022-09-16T07:30:41;93663.25;;;24.43;74.69
11049;BME280;5577;42.706;23.160;2022-09-16T07:33:25;93651.72;;;24.42;75.07
11049;BME280;5577;42.706;23.160;2022-09-16T07:36:11;93663.25;;;24.64;76.47
11049;BME280;5577;42.706;23.160;2022-09-16T07:38:56;93642.81;;;24.72;72.56
11049;BME280;5577;42.706;23.160;2022-09-16T07:41:43;93634.28;;;24.83;71.53
11049;BME280;5577;42.706;23.160;2022-09-16T07:44:27;93638.38;;;24.96;72.59
11049;BME280;5577;42.706;23.160;2022-09-16T07:47:11;93636.59;;;25.21;70.48
11049;BME280;5577;42.706;23.160;2022-09-16T07:49:55;93637.69;;;25.41;69.29
11049;BME280;5577;42.706;23.160;2022-09-16T07:52:39;93640.72;;;25.61;70.79
11049;BME280;5577;42.706;23.160;2022-09-16T07:55:23;93640.56;;;25.56;66.79
11049;BME280;5577;42.706;23.160;2022-09-16T07:58:07;93630.03;;;25.49;67.54
11049;BME280;5577;42.706;23.160;2022-09-16T08:00:50;93637.09;;;25.55;69.68
11049;BME280;5577;42.706;23.160;2022-09-16T08:03:35;93635.28;;;25.43;68.42
11049;BME280;5577;42.706;23.160;2022-09-16T08:06:23;93629.25;;;25.30;67.48
11049;BME280;5577;42.706;23.160;2022-09-16T08:09:07;93625.03;;;25.29;69.45
11049;BME280;5577;42.706;23.160;2022-09-16T08:11:51;93614.06;;;25.33;67.57
11049;BME280;5577;42.706;23.160;2022-09-16T08:14:35;93622.34;;;25.74;67.57
11049;BME280;5577;42.706;23.160;2022-09-16T08:17:19;93621.09;;;25.93;65.41
11049;BME280;5577;42.706;23.160;2022-09-16T08:20:04;93626.81;;;26.04;65.90
11049;BME280;5577;42.706;23.160;2022-09-16T08:22:49;93616.22;;;26.24;66.15
11049;BME280;5577;42.706;23.160;2022-09-16T08:25:33;93621.66;;;26.15;65.35
11049;BME280;5577;42.706;23.160;2022-09-16T08:28:19;93613.56;;;26.06;67.53
11049;BME280;5577;42.706;23.160;2022-09-16T08:31:04;93608.88;;;26.07;66.44
11049;BME280;5577;42.706;23.160;2022-09-16T08:33:48;93601.66;;;25.86;68.16
11049;BME280;5577;42.706;23.160;2022-09-16T08:36:32;93582.28;;;25.60;67.94
11049;BME280;5577;42.706;23.160;2022-09-16T08:39:16;93600.03;;;25.79;66.88
11049;BME280;5577;42.706;23.160;2022-09-16T08:50:59;93607.25;;;25.73;69.07
11049;BME280;5577;42.706;23.160;2022-09-16T08:54:23;93612.25;;;25.57;68.97
11049;BME280;5577;42.706;23.160;2022-09-16T08:57:13;93610.16;;;25.52;70.36
11049;BME280;5577;42.706;23.160;2022-09-16T09:00:16;93607.59;;;25.30;73.88
11049;BME280;5577;42.706;23.160;2022-09-16T09:03:18;93606.81;;;25.21;72.34
11049;BME280;5577;42.706;23.160;2022-09-16T09:09:32;93616.72;;;25.15;76.90
11049;BME280;5577;42.706;23.160;2022-09-16T09:12:33;93616.28;;;25.25;78.34
11049;BME280;5577;42.706;23.160;2022-09-16T09:15:50;93613.75;;;25.31;72.07
11049;BME280;5577;42.706;23.160;2022-09-16T09:18:51;93622.19;;;25.33;73.87
11049;BME280;5577;42.706;23.160;2022-09-16T09:22:12;93610.28;;;25.48;74.63
11049;BME280;5577;42.706;23.160;2022-09-16T09:41:05;93631.97;;;25.84;76.25
11049;BME280;5577;42.706;23.160;2022-09-16T09:46:39;93639.78;;;25.82;75.11
11049;BME280;5577;42.706;23.160;2022-09-16T09:49:36;93634.38;;;25.82;75.39
11049;BME280;5577;42.706;23.160;2022-09-16T09:52:44;93655.75;;;25.89;82.13
11049;BME280;5577;42.706;23.160;2022-09-16T09:55:32;93668.72;;;25.76;84.02
11049;BME280;5577;42.706;23.160;2022-09-16T09:58:32;93680.16;;;25.62;88.70
11049;BME280;5577;42.706;23.160;2022-09-16T10:01:20;93689.28;;;25.29;100.00
11049;BME280;5577;42.706;23.160;2022-09-16T10:04:11;93702.47;;;24.99;100.00
11049;BME280;5577;42.706;23.160;2022-09-16T10:06:57;93711.09;;;24.76;100.00
11049;BME280;5577;42.706;23.160;2022-09-16T10:09:52;93720.94;;;24.31;100.00
11049;BME280;5577;42.706;23.160;2022-09-16T10:12:37;93747.16;;;23.66;100.00
11049;BME280;5577;42.706;23.160;2022-09-16T10:15:27;93787.56;;;23.23;100.00
11049;BME280;5577;42.706;23.160;2022-09-16T10:18:27;93799.31;;;22.79;100.00
11049;BME280;5577;42.706;23.160;2022-09-16T10:21:15;93790.91;;;21.62;100.00
11049;BME280;5577;42.706;23.160;2022-09-16T10:24:00;93817.53;;;20.93;100.00
11049;BME280;5577;42.706;23.160;2022-09-16T10:26:45;93829.25;;;20.28;100.00
11049;BME280;5577;42.706;23.160;2022-09-16T10:29:28;93836.25;;;19.79;100.00
11049;BME280;5577;42.706;23.160;2022-09-16T10:32:17;93822.69;;;19.43;100.00
11049;BME280;5577;42.706;23.160;2022-09-16T10:35:06;93836.81;;;18.94;100.00
11049;BME280;5577;42.706;23.160;2022-09-16T10:41:00;93858.66;;;18.33;100.00
11049;BME280;5577;42.706;23.160;2022-09-16T10:43:58;93878.78;;;18.48;100.00
11049;BME280;5577;42.706;23.160;2022-09-16T10:46:56;93884.94;;;18.45;100.00
11049;BME280;5577;42.706;23.160;2022-09-16T10:49:52;93884.69;;;18.32;100.00
11049;BME280;5577;42.706;23.160;2022-09-16T10:52:43;93881.25;;;18.35;100.00
11049;BME280;5577;42.706;23.160;2022-09-16T10:55:30;93862.47;;;18.35;100.00
11049;BME280;5577;42.706;23.160;2022-09-16T10:58:21;93835.19;;;18.44;100.00
11049;BME280;5577;42.706;23.160;2022-09-16T11:01:37;93827.09;;;18.47;100.00
11049;BME280;5577;42.706;23.160;2022-09-16T11:07:42;93761.31;;;19.19;100.00
11049;BME280;5577;42.706;23.160;2022-09-16T11:13:37;93720.28;;;20.75;100.00
11049;BME280;5577;42.706;23.160;2022-09-16T11:16:30;93697.91;;;20.62;100.00
11049;BME280;5577;42.706;23.160;2022-09-16T11:40:21;93658.38;;;21.67;100.00
11049;BME280;5577;42.706;23.160;2022-09-16T11:46:18;93612.13;;;22.48;100.00
11049;BME280;5577;42.706;23.160;2022-09-16T11:49:16;93609.09;;;22.71;100.00
11049;BME280;5577;42.706;23.160;2022-09-16T11:57:38;93607.53;;;23.63;100.00
11049;BME280;5577;42.706;23.160;2022-09-16T12:00:24;93619.97;;;24.03;100.00
11049;BME280;5577;42.706;23.160;2022-09-16T12:06:37;93636.00;;;24.28;100.00
11049;BME280;5577;42.706;23.160;2022-09-16T12:09:43;93644.19;;;24.46;100.00
11049;BME280;5577;42.706;23.160;2022-09-16T12:12:39;93605.75;;;24.21;100.00
11049;BME280;5577;42.706;23.160;2022-09-16T12:15:43;93640.56;;;24.40;100.00
11049;BME280;5577;42.706;23.160;2022-09-16T12:18:35;93639.63;;;24.34;100.00
11049;BME280;5577;42.706;23.160;2022-09-16T12:21:58;93631.91;;;23.93;100.00
11049;BME280;5577;42.706;23.160;2022-09-16T12:28:15;93629.59;;;23.27;100.00
11049;BME280;5577;42.706;23.160;2022-09-16T12:31:22;93638.91;;;23.26;100.00
11049;BME280;5577;42.706;23.160;2022-09-16T12:34:37;93641.19;;;23.28;100.00
11049;BME280;5577;42.706;23.160;2022-09-16T12:37:47;93652.50;;;23.23;100.00
11049;BME280;5577;42.706;23.160;2022-09-16T12:56:01;93712.19;;;22.66;100.00
11049;BME280;5577;42.706;23.160;2022-09-16T13:02:17;93746.53;;;21.95;100.00
11049;BME280;5577;42.706;23.160;2022-09-16T13:05:24;93748.06;;;21.52;100.00
11049;BME280;5577;42.706;23.160;2022-09-16T13:08:25;93757.72;;;20.85;100.00
11049;BME280;5577;42.706;23.160;2022-09-16T13:11:20;93754.53;;;20.19;100.00
11049;BME280;5577;42.706;23.160;2022-09-16T13:14:21;93764.38;;;19.87;100.00
11049;BME280;5577;42.706;23.160;2022-09-16T13:17:09;93768.09;;;19.73;100.00
11049;BME280;5577;42.706;23.160;2022-09-16T13:19:57;93780.59;;;19.60;100.00
11049;BME280;5577;42.706;23.160;2022-09-16T13:22:51;93751.59;;;19.28;100.00
11049;BME280;5577;42.706;23.160;2022-09-16T13:26:00;93770.22;;;19.39;100.00
11049;BME280;5577;42.706;23.160;2022-09-16T13:28:45;93763.50;;;19.50;100.00
11049;BME280;5577;42.706;23.160;2022-09-16T13:31:30;93747.72;;;19.52;100.00
11049;BME280;5577;42.706;23.160;2022-09-16T13:34:15;93745.19;;;19.65;100.00
11049;BME280;5577;42.706;23.160;2022-09-16T13:37:00;93709.72;;;19.73;100.00
11049;BME280;5577;42.706;23.160;2022-09-16T13:39:44;93671.25;;;19.80;100.00
11049;BME280;5577;42.706;23.160;2022-09-16T13:42:28;93661.06;;;20.07;100.00
11049;BME280;5577;42.706;23.160;2022-09-16T13:45:39;93647.38;;;20.02;100.00
11049;BME280;5577;42.706;23.160;2022-09-16T13:48:25;93676.72;;;20.32;100.00
11049;BME280;5577;42.706;23.160;2022-09-16T13:51:16;93681.19;;;20.54;100.00
11049;BME280;5577;42.706;23.160;2022-09-16T13:54:01;93684.91;;;20.92;100.00
11049;BME280;5577;42.706;23.160;2022-09-16T14:06:24;93683.69;;;21.41;100.00
11049;BME280;5577;42.706;23.160;2022-09-16T14:15:12;93730.59;;;20.96;100.00
11049;BME280;5577;42.706;23.160;2022-09-16T14:18:00;93710.66;;;20.93;100.00
11049;BME280;5577;42.706;23.160;2022-09-16T14:21:14;93705.13;;;21.00;100.00
11049;BME280;5577;42.706;23.160;2022-09-16T14:24:11;93681.09;;;20.90;100.00
11049;BME280;5577;42.706;23.160;2022-09-16T14:26:58;93671.03;;;20.94;100.00
11049;BME280;5577;42.706;23.160;2022-09-16T14:29:53;93630.09;;;20.70;100.00
11049;BME280;5577;42.706;23.160;2022-09-16T14:32:39;93631.78;;;20.64;100.00
11049;BME280;5577;42.706;23.160;2022-09-16T14:35:25;93658.25;;;20.82;100.00
11049;BME280;5577;42.706;23.160;2022-09-16T14:38:14;93669.34;;;20.84;100.00
11049;BME280;5577;42.706;23.160;2022-09-16T14:41:00;93673.72;;;20.78;100.00
11049;BME280;5577;42.706;23.160;2022-09-16T14:43:47;93687.69;;;20.89;100.00
11049;BME280;5577;42.706;23.160;2022-09-16T14:46:32;93598.00;;;20.31;100.00
11049;BME280;5577;42.706;23.160;2022-09-16T14:49:17;93618.59;;;20.38;100.00
11049;BME280;5577;42.706;23.160;2022-09-16T14:52:02;93691.38;;;20.79;100.00
11049;BME280;5577;42.706;23.160;2022-09-16T14:54:47;93687.91;;;20.62;100.00
11049;BME280;5577;42.706;23.160;2022-09-16T14:57:31;93715.41;;;20.70;100.00
11049;BME280;5577;42.706;23.160;2022-09-16T15:00:16;93712.81;;;20.66;100.00
11049;BME280;5577;42.706;23.160;2022-09-16T15:03:12;93702.63;;;20.58;100.00
11049;BME280;5577;42.706;23.160;2022-09-16T15:06:01;93704.22;;;20.55;100.00
11049;BME280;5577;42.706;23.160;2022-09-16T15:08:58;93709.50;;;20.59;100.00
11049;BME280;5577;42.706;23.160;2022-09-16T15:11:50;93660.31;;;20.26;100.00
11049;BME280;5577;42.706;23.160;2022-09-16T15:14:38;93711.25;;;20.49;100.00
11049;BME280;5577;42.706;23.160;2022-09-16T15:17:25;93671.44;;;20.44;100.00
11049;BME280;5577;42.706;23.160;2022-09-16T15:20:19;93577.56;;;20.34;100.00
11049;BME280;5577;42.706;23.160;2022-09-16T15:23:05;93565.72;;;20.31;100.00
11049;BME280;5577;42.706;23.160;2022-09-16T15:25:57;93576.84;;;20.33;100.00
11049;BME280;5577;42.706;23.160;2022-09-16T15:29:02;93588.66;;;20.36;100.00
11049;BME280;5577;42.706;23.160;2022-09-16T15:31:47;93569.16;;;20.16;100.00
11049;BME280;5577;42.706;23.160;2022-09-16T15:34:32;93627.41;;;20.38;100.00
11049;BME280;5577;42.706;23.160;2022-09-16T15:37:32;93640.00;;;20.41;100.00
11049;BME280;5577;42.706;23.160;2022-09-16T15:40:20;93641.66;;;20.35;100.00
11049;BME280;5577;42.706;23.160;2022-09-16T15:43:23;93627.81;;;20.37;100.00
11049;BME280;5577;42.706;23.160;2022-09-16T15:49:01;93608.06;;;20.27;100.00
11049;BME280;5577;42.706;23.160;2022-09-16T15:51:47;93574.09;;;20.01;100.00
11049;BME280;5577;42.706;23.160;2022-09-16T15:54:36;93598.56;;;20.23;100.00
11049;BME280;5577;42.706;23.160;2022-09-16T15:57:31;93598.66;;;20.19;100.00
11049;BME280;5577;42.706;23.160;2022-09-16T16:00:17;93599.75;;;20.22;100.00
11049;BME280;5577;42.706;23.160;2022-09-16T16:03:03;93593.59;;;20.21;100.00
11049;BME280;5577;42.706;23.160;2022-09-16T16:05:53;93591.50;;;20.13;100.00
11049;BME280;5577;42.706;23.160;2022-09-16T16:08:38;93592.38;;;20.06;100.00
11049;BME280;5577;42.706;23.160;2022-09-16T16:11:24;93585.16;;;20.03;100.00
11049;BME280;5577;42.706;23.160;2022-09-16T16:14:08;93584.22;;;19.94;100.00
11049;BME280;5577;42.706;23.160;2022-09-16T16:16:52;93575.00;;;19.95;100.00
11049;BME280;5577;42.706;23.160;2022-09-16T16:19:36;93574.72;;;19.89;100.00
11049;BME280;5577;42.706;23.160;2022-09-16T16:22:21;93574.81;;;19.86;100.00
11049;BME280;5577;42.706;23.160;2022-09-16T16:25:06;93574.22;;;19.78;100.00
11049;BME280;5577;42.706;23.160;2022-09-16T16:27:50;93561.34;;;19.69;100.00
11049;BME280;5577;42.706;23.160;2022-09-16T16:30:34;93552.41;;;19.56;100.00
11049;BME280;5577;42.706;23.160;2022-09-16T16:33:18;93544.84;;;19.51;100.00
11049;BME280;5577;42.706;23.160;2022-09-16T16:36:03;93513.84;;;19.31;100.00
11049;BME280;5577;42.706;23.160;2022-09-16T16:38:48;93511.09;;;19.34;100.00
11049;BME280;5577;42.706;23.160;2022-09-16T16:41:32;93511.63;;;19.45;100.00
11049;BME280;5577;42.706;23.160;2022-09-16T16:44:16;93502.72;;;19.48;100.00
11049;BME280;5577;42.706;23.160;2022-09-16T16:47:00;93487.75;;;19.31;100.00
11049;BME280;5577;42.706;23.160;2022-09-16T16:49:44;93495.19;;;19.43;100.00
11049;BME280;5577;42.706;23.160;2022-09-16T16:52:28;93488.63;;;19.44;100.00
11049;BME280;5577;42.706;23.160;2022-09-16T16:55:12;93488.38;;;19.39;100.00
11049;BME280;5577;42.706;23.160;2022-09-16T16:57:57;93468.91;;;19.51;100.00
11049;BME280;5577;42.706;23.160;2022-09-16T17:00:41;93469.88;;;19.76;100.00
11049;BME280;5577;42.706;23.160;2022-09-16T17:03:25;93460.25;;;19.95;100.00
11049;BME280;5577;42.706;23.160;2022-09-16T17:06:09;93461.81;;;20.09;100.00
11049;BME280;5577;42.706;23.160;2022-09-16T17:08:54;93463.53;;;20.19;100.00
11049;BME280;5577;42.706;23.160;2022-09-16T17:11:52;93465.59;;;20.27;100.00
11049;BME280;5577;42.706;23.160;2022-09-16T17:14:36;93461.91;;;20.37;100.00
11049;BME280;5577;42.706;23.160;2022-09-16T17:17:21;93454.31;;;20.48;100.00
11049;BME280;5577;42.706;23.160;2022-09-16T17:20:06;93445.28;;;20.55;100.00
11049;BME280;5577;42.706;23.160;2022-09-16T17:22:50;93444.69;;;20.63;100.00
11049;BME280;5577;42.706;23.160;2022-09-16T17:25:34;93445.75;;;20.66;100.00
11049;BME280;5577;42.706;23.160;2022-09-16T17:28:18;93437.69;;;20.66;100.00
11049;BME280;5577;42.706;23.160;2022-09-16T17:31:10;93418.28;;;20.46;100.00